Time;durP1;ratioP1;P1;durP2;ratioP2;P2;SDS_P1;SDS_P2;PMS_P1;PMS_P2;Temp;Humidity;BMP_temperature;BMP_pressure;BME280_temperature;BME280_humidity;BME280_pressure;Samples;Min_cycle;Max_cycle;Signal;HPM_P1;HPM_P2
2022/05/26 00:01:54;;;;;;;3.50;2.60;;;;;;;12.90;100.00;97168.97;5019980;28;20049;-68
2022/05/26 00:04:20;;;;;;;3.25;2.20;;;;;;;12.87;100.00;97162.25;5002583;28;20128;-68
2022/05/26 00:06:45;;;;;;;5.28;2.78;;;;;;;12.93;100.00;97169.03;5004278;28;20042;-67
2022/05/26 00:09:11;;;;;;;3.47;2.22;;;;;;;13.05;100.00;97164.47;5000168;28;20042;-66
2022/05/26 00:11:38;;;;;;;4.80;2.50;;;;;;;13.09;100.00;97165.31;5022654;28;20033;-65
2022/05/26 00:14:09;;;;;;;5.55;2.50;;;;;;;13.05;100.00;97156.22;5010702;28;20119;-66
2022/05/26 00:16:36;;;;;;;6.28;2.63;;;;;;;13.06;100.00;97163.31;5003229;28;20061;-69
2022/05/26 00:19:02;;;;;;;5.72;2.50;;;;;;;12.99;100.00;97161.25;5028799;28;20617;-66
2022/05/26 00:21:28;;;;;;;3.80;2.40;;;;;;;13.11;100.00;97163.78;5036216;28;20036;-67
2022/05/26 00:23:55;;;;;;;3.80;2.20;;;;;;;13.05;100.00;97162.50;5034874;28;20037;-65
2022/05/26 00:26:21;;;;;;;5.82;2.70;;;;;;;12.86;100.00;97170.91;5009062;28;20386;-66
2022/05/26 00:28:46;;;;;;;3.88;2.40;;;;;;;12.87;100.00;97167.75;5013001;28;20034;-66
2022/05/26 00:31:11;;;;;;;4.07;2.30;;;;;;;12.88;100.00;97168.56;5013258;28;20034;-66
2022/05/26 00:33:37;;;;;;;3.13;2.17;;;;;;;12.86;100.00;97168.16;5012780;28;20580;-66
2022/05/26 00:36:05;;;;;;;5.28;2.30;;;;;;;12.74;100.00;97169.13;4998334;28;20380;-66
2022/05/26 00:38:30;;;;;;;4.38;2.53;;;;;;;12.67;100.00;97169.81;4991787;28;20436;-66
2022/05/26 00:41:07;;;;;;;4.75;2.50;;;;;;;12.76;100.00;97175.84;4993078;28;20034;-66
2022/05/26 00:43:34;;;;;;;5.60;2.20;;;;;;;12.72;100.00;97176.97;4993344;28;20046;-66
2022/05/26 00:46:29;;;;;;;12.57;2.63;;;;;;;12.71;100.00;97170.69;5009223;28;20030;-66
2022/05/26 00:48:59;;;;;;;3.13;2.10;;;;;;;12.83;100.00;97180.66;5011615;28;20025;-67
2022/05/26 00:51:32;;;;;;;9.23;2.83;;;;;;;12.79;100.00;97179.81;5012886;28;20068;-66
2022/05/26 00:54:09;;;;;;;22.98;10.73;;;;;;;12.55;100.00;97175.50;5011546;28;20038;-66
2022/05/26 00:56:44;;;;;;;5.65;3.70;;;;;;;12.41;100.00;97178.81;5012242;28;20112;-66
2022/05/26 00:59:21;;;;;;;6.40;2.75;;;;;;;12.28;100.00;97180.16;5012850;28;20030;-67
2022/05/26 01:01:47;;;;;;;5.55;3.30;;;;;;;12.18;100.00;97182.34;5016868;28;20034;-65
2022/05/26 01:04:18;;;;;;;4.80;2.80;;;;;;;12.20;100.00;97185.50;5012884;28;20049;-65
2022/05/26 01:06:51;;;;;;;4.20;2.45;;;;;;;12.28;100.00;97182.91;5012622;28;20512;-67
2022/05/26 01:09:17;;;;;;;5.10;2.70;;;;;;;12.37;100.00;97183.44;5023364;28;20026;-65
2022/05/26 01:11:44;;;;;;;7.35;2.70;;;;;;;12.40;100.00;97191.75;5028868;28;20091;-65
2022/05/26 01:14:22;;;;;;;4.75;2.55;;;;;;;12.34;100.00;97184.97;5034484;28;20037;-65
2022/05/26 01:17:00;;;;;;;7.45;2.72;;;;;;;12.26;100.00;97179.72;5030003;28;20132;-66
2022/05/26 01:19:53;;;;;;;5.47;3.53;;;;;;;12.13;100.00;97184.59;5031356;28;20036;-67
2022/05/26 01:22:43;;;;;;;4.90;2.88;;;;;;;11.91;100.00;97177.94;5029869;28;20032;-67
2022/05/26 01:25:25;;;;;;;8.40;3.30;;;;;;;11.79;100.00;97181.59;5030468;28;20090;-67
2022/05/26 01:28:29;;;;;;;5.65;3.10;;;;;;;11.73;100.00;97188.53;5029295;28;20083;-67
2022/05/26 01:31:24;;;;;;;3.97;2.95;;;;;;;11.80;100.00;97192.22;4999804;28;20449;-67
2022/05/26 01:34:13;;;;;;;5.15;3.03;;;;;;;11.96;100.00;97199.59;5030387;28;20490;-66
2022/05/26 01:36:39;;;;;;;7.13;3.67;;;;;;;11.97;100.00;97201.97;5029399;28;20044;-66
2022/05/26 01:39:30;;;;;;;5.63;3.28;;;;;;;12.07;100.00;97208.81;5030301;28;20056;-65
2022/05/26 01:42:15;;;;;;;9.25;3.40;;;;;;;12.25;100.00;97203.66;5030361;28;20029;-67
2022/05/26 01:44:46;;;;;;;9.82;4.00;;;;;;;12.35;100.00;97203.06;5030243;28;20032;-67
2022/05/26 01:47:35;;;;;;;17.35;5.13;;;;;;;12.48;100.00;97200.91;5029927;28;20100;-67
2022/05/26 01:50:36;;;;;;;25.92;7.47;;;;;;;12.42;100.00;97205.94;5021338;28;20566;-67
2022/05/26 01:53:32;;;;;;;18.77;5.55;;;;;;;12.24;100.00;97204.81;5040960;28;20517;-67
2022/05/26 01:56:12;;;;;;;6.82;3.13;;;;;;;11.73;100.00;97207.75;5029559;28;20041;-66
2022/05/26 01:58:41;;;;;;;5.93;3.20;;;;;;;11.50;100.00;97202.19;5030735;28;20061;-68
2022/05/26 02:01:11;;;;;;;7.57;3.20;;;;;;;11.31;100.00;97197.47;5052715;28;20021;-66
2022/05/26 02:03:39;;;;;;;7.70;3.92;;;;;;;11.19;100.00;97192.91;5049495;28;20742;-67
2022/05/26 02:06:20;;;;;;;6.38;4.25;;;;;;;11.17;100.00;97190.53;5046702;28;20113;-67
2022/05/26 02:09:08;;;;;;;6.15;3.50;;;;;;;11.28;100.00;97193.50;5039362;28;20037;-67
2022/05/26 02:11:40;;;;;;;4.75;2.90;;;;;;;11.42;100.00;97185.56;5025166;28;20045;-67
2022/05/26 02:14:12;;;;;;;6.65;3.15;;;;;;;11.44;100.00;97190.72;5022029;28;20025;-66
2022/05/26 02:16:49;;;;;;;4.20;2.60;;;;;;;11.37;100.00;97190.56;5030098;28;20084;-66
2022/05/26 02:19:25;;;;;;;4.45;2.90;;;;;;;11.51;100.00;97190.06;5028515;28;20041;-67
2022/05/26 02:22:02;;;;;;;4.28;2.30;;;;;;;11.65;100.00;97193.88;5029911;28;20030;-67
2022/05/26 02:24:41;;;;;;;4.38;2.53;;;;;;;11.64;100.00;97189.53;5029767;28;20042;-68
2022/05/26 02:27:07;;;;;;;13.07;3.67;;;;;;;11.60;100.00;97188.69;5028771;28;20562;-66
2022/05/26 02:29:51;;;;;;;4.03;2.63;;;;;;;11.60;100.00;97187.91;5030445;28;20037;-66
2022/05/26 02:32:20;;;;;;;4.40;2.60;;;;;;;11.56;100.00;97192.50;5030541;28;20040;-66
2022/05/26 02:34:48;;;;;;;5.95;2.88;;;;;;;11.53;100.00;97185.00;5032595;28;20060;-67
2022/05/26 02:37:16;;;;;;;4.65;2.95;;;;;;;11.55;100.00;97191.72;5032168;28;20083;-66
2022/05/26 02:39:42;;;;;;;7.15;3.10;;;;;;;11.52;100.00;97183.41;5035136;28;20034;-67
2022/05/26 02:42:08;;;;;;;3.30;2.95;;;;;;;11.46;100.00;97186.44;5034681;28;20116;-66
2022/05/26 02:44:34;;;;;;;4.82;2.90;;;;;;;11.50;100.00;97185.72;5034553;28;20033;-65
2022/05/26 02:47:15;;;;;;;4.93;3.10;;;;;;;11.45;100.00;97195.03;5035655;28;20536;-66
2022/05/26 02:49:55;;;;;;;7.22;2.72;;;;;;;11.33;100.00;97195.19;5034726;28;20083;-65
2022/05/26 02:52:52;;;;;;;7.63;2.80;;;;;;;11.33;100.00;97197.91;5032027;28;20041;-66
2022/05/26 02:55:26;;;;;;;6.88;2.92;;;;;;;11.30;100.00;97199.41;5017419;28;20061;-67
2022/05/26 02:58:05;;;;;;;4.57;3.05;;;;;;;11.20;100.00;97211.75;5021120;28;20069;-66
2022/05/26 03:00:48;;;;;;;5.85;3.65;;;;;;;11.17;100.00;97206.97;5021167;28;20022;-66
2022/05/26 03:03:25;;;;;;;8.30;2.65;;;;;;;11.05;100.00;97204.34;5017442;28;20022;-67
2022/05/26 03:06:01;;;;;;;8.57;3.17;;;;;;;10.94;100.00;97206.84;5021272;28;20544;-67
2022/05/26 03:08:28;;;;;;;8.18;2.85;;;;;;;10.72;100.00;97213.78;5021651;28;20034;-66
2022/05/26 03:11:04;;;;;;;7.38;2.80;;;;;;;10.52;100.00;97221.91;5022659;28;20087;-67
2022/05/26 03:13:29;;;;;;;3.92;2.95;;;;;;;10.42;100.00;97221.63;5025526;28;20087;-67
2022/05/26 03:15:55;;;;;;;5.53;2.95;;;;;;;10.39;100.00;97222.34;5033003;28;20025;-67
2022/05/26 03:18:20;;;;;;;5.85;3.33;;;;;;;10.43;100.00;97224.03;5033543;28;20034;-67
2022/05/26 03:20:45;;;;;;;5.53;3.28;;;;;;;10.40;100.00;97221.19;5033547;28;20041;-67
2022/05/26 03:23:11;;;;;;;10.73;3.30;;;;;;;10.38;100.00;97223.50;5019739;28;20022;-67
2022/05/26 03:25:36;;;;;;;6.43;2.95;;;;;;;10.41;100.00;97223.59;5019690;28;20490;-67
2022/05/26 03:28:01;;;;;;;4.22;2.60;;;;;;;10.60;100.00;97230.31;5020374;28;20033;-66
2022/05/26 03:30:27;;;;;;;5.07;2.80;;;;;;;10.52;100.00;97238.34;5021941;28;20230;-66
2022/05/26 03:32:52;;;;;;;9.27;3.30;;;;;;;10.61;100.00;97235.44;5015385;28;20037;-66
2022/05/26 03:40:46;;;;;;;5.53;3.63;;;;;;;10.40;100.00;97248.59;5020363;28;20033;-66
2022/05/26 03:43:14;;;;;;;5.72;3.67;;;;;;;10.35;100.00;97246.09;5018563;28;20437;-67
2022/05/26 03:45:39;;;;;;;6.25;3.53;;;;;;;10.30;100.00;97252.63;5020302;28;20207;-67
2022/05/26 03:48:06;;;;;;;8.85;4.20;;;;;;;10.21;100.00;97252.78;5023308;28;20513;-68
2022/05/26 03:50:32;;;;;;;4.82;3.78;;;;;;;10.23;100.00;97253.22;5031981;28;20033;-68
2022/05/26 03:52:57;;;;;;;10.85;3.72;;;;;;;10.35;100.00;97254.31;5031066;28;20029;-66
2022/05/26 03:55:24;;;;;;;9.38;4.15;;;;;;;10.52;100.00;97256.72;5023465;28;20077;-66
2022/05/26 03:57:49;;;;;;;5.53;4.10;;;;;;;10.63;100.00;97246.81;5023037;28;20038;-66
2022/05/26 04:00:18;;;;;;;5.75;3.88;;;;;;;10.63;100.00;97259.75;5031591;28;20379;-66
2022/05/26 04:02:43;;;;;;;7.22;4.38;;;;;;;10.60;100.00;97263.97;5032610;28;20422;-67
2022/05/26 04:05:11;;;;;;;8.75;3.63;;;;;;;10.60;100.00;97254.97;5032414;28;20045;-67
2022/05/26 04:07:36;;;;;;;18.50;4.25;;;;;;;10.62;100.00;97258.13;5031440;28;20502;-65
2022/05/26 04:10:08;;;;;;;6.25;3.58;;;;;;;10.67;100.00;97257.88;5025145;28;20067;-66
2022/05/26 04:12:36;;;;;;;8.02;4.05;;;;;;;10.69;100.00;97261.84;5019570;28;20025;-65
2022/05/26 04:15:03;;;;;;;5.40;3.50;;;;;;;10.84;100.00;97263.00;5011492;28;20032;-66
2022/05/26 04:17:28;;;;;;;6.45;3.55;;;;;;;11.01;100.00;97270.06;4994714;28;20060;-66
2022/05/26 04:19:54;;;;;;;6.53;3.20;;;;;;;11.17;100.00;97272.00;5012830;28;20030;-66
2022/05/26 04:22:21;;;;;;;4.55;3.08;;;;;;;11.27;100.00;97274.97;5012907;28;20505;-66
2022/05/26 04:24:49;;;;;;;5.25;3.30;;;;;;;11.39;100.00;97270.53;5012741;28;20510;-66
2022/05/26 04:27:18;;;;;;;6.35;2.88;;;;;;;11.57;100.00;97279.94;5025372;28;20436;-67
2022/05/26 04:29:43;;;;;;;4.78;2.83;;;;;;;11.80;100.00;97273.75;5047906;28;20026;-67
2022/05/26 04:32:09;;;;;;;6.63;3.13;;;;;;;12.07;100.00;97279.41;5048641;28;20032;-68
2022/05/26 04:34:34;;;;;;;4.30;2.88;;;;;;;12.27;100.00;97272.75;5045102;28;20382;-68
2022/05/26 04:37:00;;;;;;;5.97;2.50;;;;;;;12.45;100.00;97288.78;5038618;28;20037;-69
2022/05/26 04:39:25;;;;;;;3.58;2.20;;;;;;;12.58;100.00;97281.94;5038229;28;20026;-67
2022/05/26 04:41:52;;;;;;;3.40;2.20;;;;;;;12.62;100.00;97286.34;5023463;28;20068;-67
2022/05/26 04:44:19;;;;;;;4.50;2.38;;;;;;;12.80;100.00;97294.09;5024069;28;20052;-68
2022/05/26 04:46:45;;;;;;;8.63;2.35;;;;;;;12.96;100.00;97296.72;5016046;28;20030;-67
2022/05/26 04:49:10;;;;;;;6.35;2.38;;;;;;;13.11;100.00;97292.25;5011980;28;20505;-65
2022/05/26 04:51:37;;;;;;;5.18;2.50;;;;;;;13.23;100.00;97289.28;5011006;28;20497;-67
2022/05/26 04:54:05;;;;;;;3.22;1.77;;;;;;;13.34;100.00;97305.97;5019983;28;20030;-68
2022/05/26 04:56:31;;;;;;;5.97;2.38;;;;;;;13.51;100.00;97299.16;5027120;28;20037;-67
2022/05/26 04:58:57;;;;;;;3.58;2.05;;;;;;;13.64;100.00;97292.25;5028742;28;20559;-68
2022/05/26 05:01:22;;;;;;;4.55;1.98;;;;;;;13.69;100.00;97293.91;5018409;28;20025;-68
2022/05/26 05:03:48;;;;;;;3.45;2.10;;;;;;;13.73;100.00;97309.28;5020750;28;20109;-66
2022/05/26 05:06:15;;;;;;;6.53;2.10;;;;;;;13.72;100.00;97302.22;5015673;28;20056;-67
2022/05/26 05:08:41;;;;;;;2.80;2.10;;;;;;;13.68;100.00;97312.38;5033676;28;20466;-67
2022/05/26 05:11:08;;;;;;;6.53;2.63;;;;;;;13.68;100.00;97325.34;5020500;28;20095;-67
2022/05/26 05:13:34;;;;;;;4.47;2.40;;;;;;;13.66;100.00;97316.66;5012197;28;20061;-66
2022/05/26 05:16:07;;;;;;;5.25;2.10;;;;;;;13.52;100.00;97314.50;5013772;28;20061;-67
2022/05/26 05:18:32;;;;;;;5.32;2.20;;;;;;;13.59;100.00;97320.09;5013122;28;20038;-67
2022/05/26 05:21:02;;;;;;;5.90;2.70;;;;;;;13.55;100.00;97330.28;5013579;28;20033;-68
2022/05/26 05:23:28;;;;;;;4.15;2.42;;;;;;;13.77;100.00;97323.94;5012992;28;20025;-67
2022/05/26 05:25:56;;;;;;;6.47;4.40;;;;;;;13.82;100.00;97330.25;5011554;28;20030;-67
2022/05/26 05:28:31;;;;;;;5.53;3.60;;;;;;;14.20;100.00;97333.91;5012221;28;20030;-68
2022/05/26 05:31:10;;;;;;;8.95;2.67;;;;;;;14.51;100.00;97329.91;5017165;28;20525;-67
2022/05/26 05:33:41;;;;;;;3.65;2.08;;;;;;;14.72;100.00;97334.91;5032356;28;20030;-67
2022/05/26 05:36:12;;;;;;;4.82;1.98;;;;;;;14.85;100.00;97338.19;5022966;28;20096;-67
2022/05/26 05:38:39;;;;;;;7.15;1.83;;;;;;;14.91;100.00;97344.94;5021931;28;20037;-66
2022/05/26 05:41:06;;;;;;;6.10;2.03;;;;;;;14.93;100.00;97348.13;5015766;28;20053;-67
2022/05/26 05:43:33;;;;;;;3.15;2.00;;;;;;;15.01;100.00;97348.97;5019096;28;20029;-67
2022/05/26 05:45:58;;;;;;;2.42;1.52;;;;;;;15.16;100.00;97347.94;5010251;28;20108;-67
2022/05/26 05:48:24;;;;;;;4.32;1.85;;;;;;;15.16;100.00;97353.44;5019001;28;20153;-67
2022/05/26 05:50:51;;;;;;;3.15;1.70;;;;;;;15.07;100.00;97351.00;5011150;28;20387;-67
2022/05/26 05:53:16;;;;;;;5.68;2.53;;;;;;;14.92;100.00;97352.03;5024613;28;20040;-66
2022/05/26 05:55:42;;;;;;;6.30;1.70;;;;;;;15.19;100.00;97354.66;5012175;28;20046;-66
2022/05/26 05:58:09;;;;;;;5.22;1.80;;;;;;;15.39;100.00;97350.47;5010947;28;20044;-67
2022/05/26 06:00:36;;;;;;;5.20;1.70;;;;;;;15.75;100.00;97352.72;5011346;28;20490;-66
2022/05/26 06:03:02;;;;;;;4.28;1.83;;;;;;;15.91;97.96;97364.25;5010965;28;20034;-67
2022/05/26 06:05:28;;;;;;;5.18;1.92;;;;;;;15.88;97.48;97358.72;5025623;28;20046;-67
2022/05/26 06:07:53;;;;;;;8.38;2.58;;;;;;;16.11;94.88;97362.00;5011015;28;20041;-67
2022/05/26 06:10:19;;;;;;;7.18;1.98;;;;;;;16.29;92.68;97362.09;5021351;28;20033;-68
2022/05/26 06:12:45;;;;;;;5.40;1.90;;;;;;;16.65;91.84;97364.19;5016534;28;20030;-68
2022/05/26 06:15:12;;;;;;;3.30;1.80;;;;;;;17.28;88.74;97362.75;5015639;28;20390;-66
2022/05/26 06:17:38;;;;;;;3.92;1.52;;;;;;;17.64;88.13;97364.72;5026558;28;20087;-68
2022/05/26 06:20:06;;;;;;;4.32;1.65;;;;;;;17.96;84.21;97370.25;5014377;28;20430;-68
2022/05/26 06:22:32;;;;;;;3.58;1.67;;;;;;;18.08;81.12;97375.38;5021934;28;20022;-68
2022/05/26 06:24:58;;;;;;;6.43;1.83;;;;;;;18.17;81.50;97369.41;5034911;28;20037;-67
2022/05/26 06:30:14;;;;;;;4.35;1.35;;;;;;;18.37;77.80;97378.06;5035341;28;20044;-67
2022/05/26 06:38:12;;;;;;;2.83;1.30;;;;;;;19.65;74.01;97372.91;5043829;28;20272;-67
2022/05/26 06:40:37;;;;;;;1.98;1.00;;;;;;;20.70;66.49;97375.41;5024107;28;20034;-66
2022/05/26 06:43:03;;;;;;;6.43;1.30;;;;;;;21.86;61.44;97374.44;5026683;28;20060;-67
2022/05/26 06:45:28;;;;;;;2.22;1.08;;;;;;;22.00;59.23;97373.41;5035455;28;20036;-67
2022/05/26 06:47:53;;;;;;;4.07;1.00;;;;;;;20.73;63.17;97382.91;5046481;28;20064;-68
2022/05/26 06:50:19;;;;;;;2.80;1.20;;;;;;;22.22;59.23;97373.78;5031783;28;20036;-65
2022/05/26 06:52:44;;;;;;;4.03;1.00;;;;;;;21.92;60.79;97378.34;5043615;28;20498;-67
2022/05/26 06:55:11;;;;;;;2.65;0.88;;;;;;;23.18;55.30;97385.00;5037974;28;20402;-67
2022/05/26 06:57:36;;;;;;;5.85;0.80;;;;;;;23.47;52.86;97384.31;5036277;28;20030;-67
2022/05/26 07:00:05;;;;;;;4.57;1.17;;;;;;;23.08;52.97;97388.81;5037465;28;20033;-68
2022/05/26 07:02:30;;;;;;;2.20;1.10;;;;;;;23.31;52.84;97392.69;5024918;28;20064;-66
2022/05/26 07:04:56;;;;;;;3.55;1.15;;;;;;;23.56;53.01;97387.28;5035539;28;20033;-68
2022/05/26 07:07:22;;;;;;;3.22;0.70;;;;;;;24.20;50.18;97379.28;5020371;28;20034;-67
2022/05/26 07:09:47;;;;;;;4.25;0.80;;;;;;;25.23;45.20;97382.34;5017622;28;20033;-67
2022/05/26 07:12:12;;;;;;;2.92;1.00;;;;;;;25.32;43.77;97385.28;5028884;28;20026;-68
2022/05/26 07:14:38;;;;;;;1.55;0.55;;;;;;;26.00;42.06;97387.91;5024330;28;20072;-66
2022/05/26 07:17:04;;;;;;;3.42;0.70;;;;;;;26.67;40.00;97386.72;5027636;28;20029;-67
2022/05/26 07:19:37;;;;;;;2.25;0.68;;;;;;;25.49;43.34;97396.38;5039143;28;20056;-65
2022/05/26 07:22:03;;;;;;;1.38;0.60;;;;;;;26.56;39.80;97399.56;5022969;28;20368;-66
2022/05/26 07:24:29;;;;;;;1.85;0.88;;;;;;;26.61;38.52;97387.75;5012682;28;20075;-67
2022/05/26 07:26:54;;;;;;;3.97;0.85;;;;;;;26.37;40.60;97388.19;5014494;28;20056;-67
2022/05/26 07:29:20;;;;;;;2.58;0.73;;;;;;;27.05;37.57;97385.69;5023980;28;20043;-65
2022/05/26 07:31:46;;;;;;;2.13;0.85;;;;;;;27.54;36.32;97391.84;5033385;28;20108;-68
2022/05/26 07:34:11;;;;;;;2.70;0.50;;;;;;;28.68;34.33;97386.19;5033591;28;20490;-67
2022/05/26 07:42:12;;;;;;;5.35;0.80;;;;;;;28.69;31.14;97399.03;5012851;28;20480;-66
2022/05/26 07:44:40;;;;;;;1.63;0.60;;;;;;;27.90;34.10;97394.00;5020850;28;20105;-68
2022/05/26 07:47:08;;;;;;;4.43;0.73;;;;;;;27.40;33.58;97393.97;5031046;28;20072;-67
2022/05/26 07:49:35;;;;;;;1.77;0.45;;;;;;;27.27;33.83;97393.31;5033472;28;20061;-68
2022/05/26 07:52:01;;;;;;;2.90;0.40;;;;;;;26.75;34.00;97392.84;5033016;28;20402;-69
2022/05/26 07:54:30;;;;;;;3.88;0.73;;;;;;;27.58;32.43;97398.13;5033627;28;20030;-69
2022/05/26 07:56:57;;;;;;;3.25;0.90;;;;;;;27.85;34.93;97403.78;5029809;28;20491;-69
2022/05/26 07:59:23;;;;;;;2.20;0.70;;;;;;;28.40;33.49;97407.97;5017093;28;20104;-68
2022/05/26 08:01:49;;;;;;;4.10;0.85;;;;;;;27.36;36.54;97407.41;5014179;28;20092;-68
2022/05/26 08:04:15;;;;;;;6.50;1.50;;;;;;;26.49;38.41;97400.63;5015697;28;20033;-67
2022/05/26 08:06:47;;;;;;;8.18;1.40;;;;;;;26.60;39.05;97403.03;5004503;28;20029;-68
2022/05/26 08:09:19;;;;;;;3.38;1.13;;;;;;;25.38;41.45;97407.91;5004823;28;20026;-67
2022/05/26 08:11:45;;;;;;;5.47;1.50;;;;;;;25.21;41.50;97403.63;5004444;28;20037;-66
2022/05/26 08:14:11;;;;;;;4.10;1.20;;;;;;;23.80;45.73;97407.50;5019534;28;20593;-65
2022/05/26 08:16:37;;;;;;;3.47;0.88;;;;;;;23.89;45.48;97401.28;5021311;28;20048;-65
2022/05/26 08:19:04;;;;;;;2.83;1.10;;;;;;;23.43;45.47;97408.78;5019566;28;20038;-64
2022/05/26 08:21:30;;;;;;;2.40;1.00;;;;;;;23.58;46.84;97406.44;5009328;28;20056;-68
2022/05/26 08:23:56;;;;;;;2.88;1.08;;;;;;;23.35;47.44;97410.16;5012839;28;20033;-65
2022/05/26 08:26:22;;;;;;;2.97;1.10;;;;;;;23.01;46.62;97409.31;5021615;28;20443;-67
2022/05/26 08:28:49;;;;;;;3.03;1.08;;;;;;;22.69;46.31;97409.97;5019904;28;20498;-69
2022/05/26 08:31:15;;;;;;;1.90;0.93;;;;;;;22.21;48.99;97405.69;4999054;28;20088;-66
2022/05/26 08:33:42;;;;;;;2.53;1.00;;;;;;;22.62;47.25;97407.34;5021369;28;20470;-67
2022/05/26 08:36:09;;;;;;;1.92;1.20;;;;;;;22.21;47.14;97414.84;5016830;28;20045;-66
2022/05/26 08:38:36;;;;;;;2.50;1.10;;;;;;;20.95;50.97;97408.47;5006981;28;20045;-67
2022/05/26 08:41:02;;;;;;;2.72;0.90;;;;;;;20.99;52.70;97409.22;5028914;28;20628;-69
2022/05/26 08:43:46;;;;;;;3.03;1.00;;;;;;;21.30;51.65;97403.63;5022400;28;20068;-70
2022/05/26 08:46:17;;;;;;;3.72;1.38;;;;;;;21.81;49.13;97395.25;5006235;28;20037;-68
2022/05/26 08:48:51;;;;;;;1.63;0.80;;;;;;;22.27;49.33;97395.63;5011841;28;20500;-68
2022/05/26 08:51:55;;;;;;;4.03;0.85;;;;;;;22.22;46.81;97408.06;5007701;28;20050;-68
2022/05/26 08:54:31;;;;;;;5.95;0.82;;;;;;;23.11;45.78;97401.91;4995719;28;20518;-67
2022/05/26 08:56:59;;;;;;;2.97;0.60;;;;;;;23.21;47.10;97414.06;5011195;28;20510;-67
2022/05/26 08:59:51;;;;;;;3.47;0.70;;;;;;;23.48;44.45;97422.25;5014377;28;20048;-69
2022/05/26 09:02:24;;;;;;;5.38;1.45;;;;;;;23.88;42.92;97424.09;5022899;28;20046;-64
2022/05/26 09:04:50;;;;;;;4.15;1.27;;;;;;;23.61;41.45;97425.13;5031409;28;20072;-67
2022/05/26 09:12:57;;;;;;;2.05;0.73;;;;;;;24.00;40.11;97413.00;4995896;28;20049;-67
2022/05/26 09:15:27;;;;;;;3.35;0.55;;;;;;;23.14;40.49;97405.84;5035546;28;20048;-68
2022/05/26 09:17:52;;;;;;;4.93;2.67;;;;;;;22.98;41.63;97414.97;5026129;28;20046;-68
2022/05/26 09:20:28;;;;;;;4.60;1.10;;;;;;;23.04;42.16;97419.63;5018700;28;20045;-69
2022/05/26 09:23:07;;;;;;;2.63;0.60;;;;;;;23.43;42.11;97415.16;5028856;28;20409;-67
2022/05/26 09:25:38;;;;;;;1.70;0.45;;;;;;;22.94;40.78;97411.44;5015415;28;20045;-68
2022/05/26 09:28:04;;;;;;;5.35;0.70;;;;;;;23.19;40.17;97417.31;5005707;28;20065;-65
2022/05/26 09:30:33;;;;;;;2.75;0.68;;;;;;;24.35;37.84;97418.88;5007383;28;20045;-68
2022/05/26 09:32:59;;;;;;;1.05;0.30;;;;;;;23.70;38.17;97416.13;5009307;28;20421;-67
2022/05/26 09:35:26;;;;;;;1.50;0.60;;;;;;;24.28;38.48;97407.88;4994149;28;20041;-68
2022/05/26 09:37:55;;;;;;;3.55;0.68;;;;;;;24.60;38.17;97420.22;5020535;28;20094;-68
2022/05/26 09:40:26;;;;;;;1.53;0.43;;;;;;;23.96;38.71;97415.09;5016072;28;20045;-68
2022/05/26 09:43:05;;;;;;;2.10;0.70;;;;;;;23.21;39.75;97416.84;5018092;28;20061;-67
2022/05/26 09:45:52;;;;;;;0.75;0.32;;;;;;;23.86;39.62;97418.97;5010707;28;20049;-69
2022/05/26 09:48:25;;;;;;;1.17;0.50;;;;;;;24.80;37.33;97411.66;4986054;28;20041;-68
2022/05/26 09:51:08;;;;;;;1.80;0.50;;;;;;;24.26;39.00;97420.75;4991659;28;20061;-66
2022/05/26 09:53:38;;;;;;;2.67;0.57;;;;;;;24.87;37.21;97419.06;4993470;28;20046;-67
2022/05/26 09:56:05;;;;;;;2.47;0.50;;;;;;;25.28;37.06;97418.25;4989323;28;20042;-64
2022/05/26 09:58:37;;;;;;;1.40;0.40;;;;;;;24.50;40.33;97412.88;5000241;28;20053;-68
2022/05/26 10:01:20;;;;;;;1.77;0.40;;;;;;;23.98;37.97;97411.84;5018455;28;20121;-67
2022/05/26 10:04:00;;;;;;;1.67;0.60;;;;;;;23.76;40.50;97419.97;5011831;28;20105;-67
2022/05/26 10:06:34;;;;;;;2.22;0.43;;;;;;;23.98;39.16;97423.81;5005823;28;20056;-68
2022/05/26 10:09:08;;;;;;;3.63;0.75;;;;;;;23.37;40.06;97416.91;5006459;28;20045;-67
2022/05/26 10:11:48;;;;;;;2.75;0.77;;;;;;;24.14;38.52;97422.22;5016650;28;20344;-67
2022/05/26 10:14:51;;;;;;;4.82;0.75;;;;;;;24.02;38.94;97420.94;5004671;28;20053;-68
2022/05/26 10:17:19;;;;;;;1.83;0.50;;;;;;;24.37;38.11;97408.00;5003823;28;20053;-68
2022/05/26 10:20:05;;;;;;;1.58;0.50;;;;;;;23.54;41.23;97417.69;5009443;28;20041;-68
2022/05/26 10:22:44;;;;;;;1.55;0.52;;;;;;;23.47;40.34;97420.66;5012135;28;20112;-67
2022/05/26 10:25:25;;;;;;;;;;;;;;;23.33;39.88;97412.59;5011797;28;20042;-67
2022/05/26 10:28:23;;;;;;;1.48;0.52;;;;;;;23.84;38.22;97405.41;5020691;28;19925;-68
2022/05/26 10:31:07;;;;;;;2.97;0.30;;;;;;;24.01;38.87;97405.38;5030360;28;20612;-67
2022/05/26 10:34:00;;;;;;;2.03;0.50;;;;;;;23.39;38.27;97399.69;5030225;28;20057;-67
2022/05/26 10:36:52;;;;;;;2.03;0.45;;;;;;;23.49;39.39;97404.25;5016593;28;20061;-68
2022/05/26 10:39:47;;;;;;;3.33;0.63;;;;;;;22.93;40.22;97404.28;4985824;28;20133;-66
2022/05/26 10:42:23;;;;;;;1.15;0.45;;;;;;;23.32;40.67;97411.03;5001706;28;20129;-67
2022/05/26 10:45:04;;;;;;;2.58;0.63;;;;;;;23.35;40.40;97402.56;4991619;28;20043;-68
2022/05/26 10:47:47;;;;;;;3.40;0.82;;;;;;;23.95;39.25;97402.34;4990092;28;20073;-67
2022/05/26 10:50:27;;;;;;;5.32;2.38;;;;;;;24.06;39.54;97396.47;5010278;28;20380;-66
2022/05/26 10:53:00;;;;;;;3.45;0.55;;;;;;;23.56;39.26;97403.28;5020587;28;20179;-67
2022/05/26 10:55:36;;;;;;;1.23;0.63;;;;;;;23.48;39.42;97399.88;5015606;28;20494;-67
2022/05/26 10:58:16;;;;;;;1.83;0.50;;;;;;;23.57;38.52;97402.03;5010051;28;20042;-69
2022/05/26 11:00:42;;;;;;;2.45;0.90;;;;;;;23.45;38.09;97403.53;5010377;28;20132;-67
2022/05/26 11:03:19;;;;;;;4.13;0.57;;;;;;;23.37;38.42;97396.53;5007074;28;20581;-66
2022/05/26 11:05:54;;;;;;;1.58;0.50;;;;;;;23.50;38.99;97391.84;5010106;28;20080;-66
2022/05/26 11:08:32;;;;;;;3.30;0.60;;;;;;;23.46;39.83;97394.72;5006762;28;20130;-67
2022/05/26 11:10:58;;;;;;;1.63;0.50;;;;;;;23.46;39.26;97391.94;5004088;28;20046;-68
2022/05/26 11:13:44;;;;;;;3.60;0.55;;;;;;;23.29;40.63;97388.31;4985618;28;20046;-68
2022/05/26 11:19:50;;;;;;;2.65;0.60;;;;;;;23.40;39.70;97384.50;4986515;28;20050;-69
2022/05/26 11:22:17;;;;;;;2.15;0.35;;;;;;;23.66;40.07;97385.47;4993210;28;20052;-66
2022/05/26 11:24:51;;;;;;;3.88;0.73;;;;;;;23.58;40.65;97384.06;5018177;28;20038;-68
2022/05/26 11:27:33;;;;;;;2.42;0.60;;;;;;;23.55;39.77;97382.13;5032609;28;20077;-66
2022/05/26 11:36:07;;;;;;;2.60;0.50;;;;;;;23.50;38.15;97383.47;5021043;28;20088;-68
2022/05/26 11:38:27;;;;;;;1.60;0.52;;;;;;;23.72;39.01;97380.13;5018634;28;20041;-69
2022/05/26 11:41:05;;;;;;;3.78;0.60;;;;;;;23.56;40.85;97372.53;5023174;28;20044;-68
2022/05/26 11:43:40;;;;;;;1.83;0.40;;;;;;;23.61;40.09;97372.00;5022501;28;20045;-67
2022/05/26 11:46:08;;;;;;;3.35;0.40;;;;;;;23.41;40.09;97374.91;5018690;28;20148;-66
2022/05/26 11:48:34;;;;;;;1.80;0.38;;;;;;;23.47;39.71;97354.34;5014234;28;20056;-67
2022/05/26 11:51:03;;;;;;;4.13;0.63;;;;;;;23.52;38.51;97371.84;5024666;28;20037;-68
2022/05/26 11:53:32;;;;;;;;;;;;;;;23.83;39.20;97369.47;5024622;28;20046;-67
2022/05/26 11:56:20;;;;;;;1.38;0.40;;;;;;;23.82;39.85;97365.09;5022149;28;19913;-67
2022/05/26 11:58:47;;;;;;;1.08;0.60;;;;;;;23.53;38.11;97365.78;5006049;28;20149;-68
2022/05/26 12:01:19;;;;;;;2.08;0.50;;;;;;;23.60;38.92;97359.25;5001982;28;20030;-67
2022/05/26 12:04:00;;;;;;;1.05;0.40;;;;;;;23.64;38.24;97355.16;5022914;28;20037;-67
2022/05/26 12:06:38;;;;;;;2.05;0.60;;;;;;;23.71;39.84;97361.78;5024381;28;20103;-68
2022/05/26 12:09:20;;;;;;;3.25;0.70;;;;;;;23.62;39.28;97362.38;5021097;28;20034;-68
2022/05/26 12:12:03;;;;;;;1.55;0.40;;;;;;;23.65;39.62;97364.31;5023718;28;20042;-65
2022/05/26 12:14:34;;;;;;;2.15;0.65;;;;;;;23.75;38.60;97354.88;5001960;28;20052;-67
2022/05/26 12:17:33;;;;;;;3.30;0.57;;;;;;;23.88;38.04;97360.56;5002503;28;20087;-68
2022/05/26 12:20:05;;;;;;;3.80;0.60;;;;;;;24.21;37.52;97352.84;5010741;28;20152;-68
2022/05/26 12:22:36;;;;;;;1.23;0.38;;;;;;;23.78;38.55;97358.78;5020905;28;20338;-68
2022/05/26 12:25:25;;;;;;;2.35;0.60;;;;;;;24.10;37.18;97352.38;5003974;28;20042;-68